Time;durP1;ratioP1;P1;durP2;ratioP2;P2;SDS_P1;SDS_P2;PMS_P1;PMS_P2;Temp;Humidity;BMP_temperature;BMP_pressure;BME280_temperature;BME280_humidity;BME280_pressure;Samples;Min_cycle;Max_cycle;Signal;HPM_P1;HPM_P2
2022/06/09 00:00:41;;;;;;;3.03;1.83;;;;;;;14.54;100.00;95737.53;5070789;28;20448;-72
2022/06/09 00:03:13;;;;;;;4.40;2.00;;;;;;;14.62;100.00;95733.81;5070914;28;20976;-72
2022/06/09 00:05:40;;;;;;;5.63;1.90;;;;;;;14.49;100.00;95725.34;5072279;28;20897;-72
2022/06/09 00:08:07;;;;;;;2.73;1.67;;;;;;;14.37;100.00;95701.63;5071267;28;20432;-72
2022/06/09 00:10:39;;;;;;;2.90;1.97;;;;;;;14.43;100.00;95734.75;5071237;28;20437;-72
2022/06/09 00:13:06;;;;;;;8.43;1.80;;;;;;;14.48;100.00;95737.88;5070742;28;20519;-72
2022/06/09 00:15:34;;;;;;;3.33;2.07;;;;;;;14.53;100.00;95739.44;5087997;28;20989;-71
2022/06/09 00:18:01;;;;;;;1.33;1.00;;;;;;;14.52;100.00;95743.22;5075415;28;20859;-72
2022/06/09 00:20:27;;;;;;;2.03;1.80;;;;;;;14.48;100.00;95737.13;5046828;28;20435;-71
2022/06/09 00:22:54;;;;;;;1.60;1.50;;;;;;;14.40;100.00;95735.47;5087653;28;20471;-71
2022/06/09 00:25:21;;;;;;;2.40;1.77;;;;;;;14.34;100.00;95728.97;5079192;28;20431;-71
2022/06/09 00:27:48;;;;;;;3.80;2.10;;;;;;;14.47;100.00;95744.34;5095868;28;20427;-71
2022/06/09 00:30:17;;;;;;;1.63;1.53;;;;;;;14.54;100.00;95732.97;5095618;28;20432;-71
2022/06/09 00:32:44;;;;;;;1.87;1.77;;;;;;;14.23;100.00;95702.25;5078838;28;20980;-71
2022/06/09 00:35:12;;;;;;;2.80;1.90;;;;;;;14.41;100.00;95737.00;5095926;28;20467;-71
2022/06/09 00:37:39;;;;;;;2.03;1.83;;;;;;;14.39;100.00;95736.59;5097924;28;20453;-71
2022/06/09 00:40:07;;;;;;;1.37;1.23;;;;;;;14.15;100.00;95703.31;5097493;28;20431;-72
2022/06/09 00:42:35;;;;;;;3.10;1.70;;;;;;;14.39;100.00;95734.72;5095041;28;20424;-71
2022/06/09 00:45:30;;;;;;;6.53;1.90;;;;;;;14.16;100.00;95716.25;5095524;28;20431;-72
2022/06/09 00:48:22;;;;;;;1.73;1.63;;;;;;;13.99;100.00;95695.53;5094942;28;20431;-72
2022/06/09 00:51:04;;;;;;;6.80;2.33;;;;;;;14.07;100.00;95696.41;5094388;28;20445;-72
2022/06/09 00:53:34;;;;;;;3.00;1.50;;;;;;;14.28;100.00;95715.22;5076318;28;20445;-71
2022/06/09 00:56:02;;;;;;;1.80;1.60;;;;;;;14.20;100.00;95714.41;5058309;28;20441;-72
2022/06/09 00:58:35;;;;;;;2.83;2.00;;;;;;;14.25;100.00;95702.66;5086183;28;20532;-72
2022/06/09 01:01:06;;;;;;;1.30;1.20;;;;;;;14.30;100.00;95705.00;5091848;28;20431;-72
2022/06/09 01:03:59;;;;;;;1.77;1.37;;;;;;;14.41;100.00;95715.72;5090451;28;20466;-72
2022/06/09 01:06:31;;;;;;;4.27;1.63;;;;;;;14.54;100.00;95738.31;5089800;28;20431;-72
2022/06/09 01:09:09;;;;;;;2.40;1.50;;;;;;;14.49;100.00;95730.66;5055286;28;20866;-72
2022/06/09 01:11:37;;;;;;;3.00;1.83;;;;;;;14.39;100.00;95732.06;5069525;28;20447;-72
2022/06/09 01:14:07;;;;;;;6.00;1.90;;;;;;;14.20;100.00;95727.69;5071096;28;20452;-72
2022/06/09 01:17:03;;;;;;;2.70;1.83;;;;;;;14.23;100.00;95728.84;5071296;28;20428;-72
2022/06/09 01:20:07;;;;;;;1.63;1.53;;;;;;;14.41;100.00;95729.78;5052936;28;20469;-72
2022/06/09 01:23:03;;;;;;;2.50;1.60;;;;;;;14.31;100.00;95730.47;5069629;28;20493;-72
2022/06/09 01:25:42;;;;;;;1.30;1.20;;;;;;;14.18;100.00;95706.03;5069795;28;20507;-72
2022/06/09 01:28:26;;;;;;;3.27;2.20;;;;;;;14.23;100.00;95725.44;5069895;28;20940;-72
2022/06/09 01:31:09;;;;;;;3.17;1.80;;;;;;;14.07;100.00;95720.31;5069836;28;20435;-72
2022/06/09 01:33:46;;;;;;;2.67;1.63;;;;;;;13.86;100.00;95718.19;5071038;28;20506;-71
2022/06/09 01:36:25;;;;;;;1.87;1.73;;;;;;;13.76;100.00;95718.84;5074904;28;20487;-71
2022/06/09 01:38:57;;;;;;;5.47;3.20;;;;;;;13.60;100.00;95714.44;5073215;28;20440;-71
2022/06/09 01:41:25;;;;;;;7.90;3.70;;;;;;;13.70;100.00;95722.91;5073300;28;20437;-72
2022/06/09 01:43:54;;;;;;;8.80;4.10;;;;;;;13.68;100.00;95725.19;5073009;28;20464;-71
2022/06/09 01:46:36;;;;;;;6.20;3.30;;;;;;;13.55;100.00;95725.41;5072940;28;20440;-71
2022/06/09 01:49:16;;;;;;;3.70;2.70;;;;;;;13.31;100.00;95736.44;5074166;28;20432;-71
2022/06/09 01:51:45;;;;;;;3.37;2.30;;;;;;;13.18;100.00;95711.19;5073012;28;20436;-71
2022/06/09 01:54:24;;;;;;;1.73;1.63;;;;;;;13.40;100.00;95723.69;5072433;28;20545;-71
2022/06/09 01:57:02;;;;;;;3.37;1.90;;;;;;;13.23;100.00;95722.31;5072908;28;20453;-71
2022/06/09 01:59:34;;;;;;;5.10;2.50;;;;;;;13.37;100.00;95724.41;5072839;28;20436;-71
2022/06/09 02:02:12;;;;;;;2.90;1.60;;;;;;;13.36;100.00;95724.75;5074076;28;20425;-71
2022/06/09 02:05:04;;;;;;;2.30;2.10;;;;;;;13.39;100.00;95724.03;5072559;28;20478;-71
2022/06/09 02:07:33;;;;;;;3.23;1.90;;;;;;;13.64;100.00;95737.66;5073908;28;20476;-71
2022/06/09 02:10:20;;;;;;;1.80;1.63;;;;;;;13.57;100.00;95730.34;5072647;28;20540;-71
2022/06/09 02:12:48;;;;;;;2.27;2.00;;;;;;;13.48;100.00;95729.84;5072424;28;20956;-71
2022/06/09 02:15:23;;;;;;;2.67;2.47;;;;;;;13.63;100.00;95730.81;5074296;28;20984;-71
2022/06/09 02:17:51;;;;;;;3.33;1.50;;;;;;;13.41;100.00;95727.84;5077965;28;20470;-71
2022/06/09 02:20:22;;;;;;;4.17;1.77;;;;;;;13.40;100.00;95733.53;5077017;28;20844;-71
2022/06/09 02:22:49;;;;;;;2.60;2.10;;;;;;;13.50;100.00;95728.38;5076354;28;20840;-71
2022/06/09 02:25:17;;;;;;;2.20;1.83;;;;;;;13.40;100.00;95730.88;5075436;28;20433;-71
2022/06/09 02:27:44;;;;;;;2.60;1.83;;;;;;;13.45;100.00;95733.97;5075521;28;20436;-71
2022/06/09 02:30:11;;;;;;;1.73;1.63;;;;;;;13.64;100.00;95733.09;5076462;28;20425;-71
2022/06/09 02:32:58;;;;;;;2.50;1.80;;;;;;;13.75;100.00;95730.56;5075119;28;20471;-71
2022/06/09 02:35:24;;;;;;;3.00;1.70;;;;;;;13.76;100.00;95732.88;5076178;28;20492;-71
2022/06/09 02:37:51;;;;;;;2.17;1.97;;;;;;;13.82;100.00;95746.59;5076299;28;20524;-71
2022/06/09 02:40:18;;;;;;;2.17;1.97;;;;;;;13.71;100.00;95743.81;5075194;28;20479;-71
2022/06/09 02:42:45;;;;;;;3.13;1.80;;;;;;;13.60;100.00;95740.25;5075060;28;20425;-71
2022/06/09 02:45:16;;;;;;;4.70;2.00;;;;;;;13.64;100.00;95745.63;5074790;28;20437;-71
2022/06/09 02:47:44;;;;;;;2.93;1.97;;;;;;;13.48;100.00;95741.22;5075441;28;20432;-71
2022/06/09 02:50:12;;;;;;;2.60;2.00;;;;;;;13.46;100.00;95758.66;5075081;28;20441;-71
2022/06/09 02:52:39;;;;;;;1.70;1.60;;;;;;;13.18;100.00;95727.13;5092449;28;20440;-71
2022/06/09 02:55:06;;;;;;;2.30;2.10;;;;;;;13.30;100.00;95742.88;5093032;28;20451;-71
2022/06/09 02:57:32;;;;;;;2.37;2.10;;;;;;;13.34;100.00;95751.66;5074898;28;20438;-71
2022/06/09 02:59:59;;;;;;;2.80;2.50;;;;;;;13.21;100.00;95753.72;5093017;28;20424;-71
2022/06/09 03:02:26;;;;;;;2.33;1.83;;;;;;;13.17;100.00;95760.84;5091602;28;20440;-71
2022/06/09 03:04:52;;;;;;;3.43;2.00;;;;;;;13.14;100.00;95752.84;5080055;28;21048;-71
2022/06/09 03:07:19;;;;;;;3.83;2.27;;;;;;;13.32;100.00;95761.88;5072585;28;20456;-71
2022/06/09 03:09:46;;;;;;;6.97;2.50;;;;;;;13.17;100.00;95760.84;5071186;28;20447;-71
2022/06/09 03:12:12;;;;;;;2.33;2.13;;;;;;;13.25;100.00;95769.75;5072541;28;20449;-71
2022/06/09 03:14:39;;;;;;;2.23;2.13;;;;;;;13.31;100.00;95761.09;5072672;28;20526;-71
2022/06/09 03:17:06;;;;;;;4.43;2.50;;;;;;;13.28;100.00;95753.09;5072339;28;20490;-71
2022/06/09 03:19:33;;;;;;;2.70;2.50;;;;;;;13.19;100.00;95733.97;5072642;28;20428;-71
2022/06/09 03:22:00;;;;;;;2.63;2.43;;;;;;;13.43;100.00;95754.06;5070806;28;20535;-71
2022/06/09 03:24:27;;;;;;;2.90;2.70;;;;;;;13.42;100.00;95747.22;5072291;28;20448;-71
2022/06/09 03:26:54;;;;;;;2.90;2.70;;;;;;;13.47;100.00;95766.25;5092390;28;20459;-71
2022/06/09 03:29:21;;;;;;;6.13;3.57;;;;;;;13.50;100.00;95770.09;5075282;28;20992;-71
2022/06/09 03:31:48;;;;;;;3.03;2.83;;;;;;;13.28;100.00;95726.53;5077449;28;20434;-71
2022/06/09 03:34:15;;;;;;;3.33;2.70;;;;;;;13.59;100.00;95768.69;5092670;28;20475;-71
2022/06/09 03:36:45;;;;;;;4.50;2.87;;;;;;;13.72;100.00;95776.47;5074498;28;20477;-71
2022/06/09 03:39:13;;;;;;;4.13;3.87;;;;;;;13.67;100.00;95769.56;5091199;28;20489;-70
2022/06/09 03:41:40;;;;;;;3.17;2.97;;;;;;;13.69;100.00;95766.56;5083119;28;20473;-71
2022/06/09 03:44:07;;;;;;;2.93;2.73;;;;;;;13.19;100.00;95744.59;5070733;28;20487;-71
2022/06/09 03:46:34;;;;;;;3.43;3.03;;;;;;;13.37;100.00;95774.09;5070723;28;20440;-71
2022/06/09 03:49:02;;;;;;;3.23;2.97;;;;;;;13.39;100.00;95766.53;5070385;28;20424;-71
2022/06/09 03:51:29;;;;;;;3.20;3.00;;;;;;;13.42;100.00;95763.91;5071914;28;20428;-71
2022/06/09 03:53:55;;;;;;;4.40;2.80;;;;;;;13.51;100.00;95780.38;5070187;28;20453;-71
2022/06/09 03:56:22;;;;;;;5.30;3.27;;;;;;;13.47;100.00;95782.19;5078808;28;20464;-71
2022/06/09 03:58:49;;;;;;;2.97;2.77;;;;;;;13.31;100.00;95750.47;5073278;28;20435;-71
2022/06/09 04:01:17;;;;;;;2.43;2.33;;;;;;;13.44;100.00;95780.25;5073721;28;20489;-71
2022/06/09 04:03:45;;;;;;;3.33;2.97;;;;;;;13.40;100.00;95784.75;5087456;28;21090;-70
2022/06/09 04:06:20;;;;;;;3.40;2.73;;;;;;;13.09;100.00;95782.31;5070150;28;20461;-71
2022/06/09 04:08:48;;;;;;;9.57;3.40;;;;;;;13.24;100.00;95784.91;5071503;28;20850;-71
2022/06/09 04:11:17;;;;;;;3.10;2.80;;;;;;;12.95;100.00;95746.50;5070436;28;20444;-70
2022/06/09 04:13:44;;;;;;;3.27;2.97;;;;;;;13.20;100.00;95784.06;5070001;28;20484;-70
2022/06/09 04:16:33;;;;;;;2.70;2.13;;;;;;;13.15;100.00;95794.19;5070132;28;20962;-71
2022/06/09 04:19:02;;;;;;;2.60;2.40;;;;;;;13.11;100.00;95785.41;5070206;28;20531;-70
2022/06/09 04:21:31;;;;;;;3.13;2.00;;;;;;;13.19;100.00;95785.19;5071300;28;20428;-70
2022/06/09 04:23:59;;;;;;;1.87;1.77;;;;;;;13.20;100.00;95783.28;5070158;28;20448;-71
2022/06/09 04:26:28;;;;;;;2.90;2.23;;;;;;;13.13;100.00;95789.25;5071262;28;20424;-70
2022/06/09 04:28:55;;;;;;;2.50;2.30;;;;;;;13.01;100.00;95782.22;5069682;28;20437;-70
2022/06/09 04:31:22;;;;;;;2.40;2.20;;;;;;;12.93;100.00;95783.22;5069624;28;20879;-71
2022/06/09 04:33:49;;;;;;;2.00;1.90;;;;;;;13.13;100.00;95788.47;5069568;28;20462;-70
2022/06/09 04:36:17;;;;;;;2.50;2.40;;;;;;;13.10;100.00;95789.19;5069575;28;20516;-70
2022/06/09 04:38:44;;;;;;;2.00;1.90;;;;;;;13.01;100.00;95758.34;5069722;28;20433;-73
2022/06/09 04:41:13;;;;;;;2.00;1.80;;;;;;;13.20;100.00;95791.25;5070922;28;20474;-71
2022/06/09 04:43:41;;;;;;;1.87;1.77;;;;;;;13.24;100.00;95795.53;5069560;28;20547;-71
2022/06/09 04:46:10;;;;;;;2.83;2.23;;;;;;;13.22;100.00;95791.66;5069452;28;20444;-72
2022/06/09 04:48:38;;;;;;;2.67;2.50;;;;;;;13.13;100.00;95791.91;5069800;28;20523;-73
2022/06/09 04:51:06;;;;;;;2.80;2.40;;;;;;;13.42;100.00;95806.41;5070673;28;20505;-71
2022/06/09 04:53:33;;;;;;;2.40;2.20;;;;;;;13.43;100.00;95815.13;5069285;28;20543;-71
2022/06/09 04:56:00;;;;;;;3.67;2.20;;;;;;;13.25;100.00;95794.41;5069239;28;20881;-70
2022/06/09 04:58:27;;;;;;;2.97;2.73;;;;;;;13.51;100.00;95819.44;5069442;28;20443;-70
2022/06/09 05:00:53;;;;;;;2.47;2.30;;;;;;;13.77;100.00;95829.31;5069413;28;20429;-70
2022/06/09 05:03:21;;;;;;;2.30;2.13;;;;;;;13.75;100.00;95826.97;5070690;28;20456;-71
2022/06/09 05:05:49;;;;;;;2.20;2.00;;;;;;;13.66;100.00;95826.50;5069230;28;20436;-71
2022/06/09 05:08:17;;;;;;;2.90;2.30;;;;;;;13.99;100.00;95833.75;5069866;28;20486;-71
2022/06/09 05:10:45;;;;;;;2.37;2.17;;;;;;;14.10;100.00;95831.25;5073198;28;20435;-70
2022/06/09 05:13:14;;;;;;;2.30;2.20;;;;;;;13.99;100.00;95841.75;5072883;28;20505;-70
2022/06/09 05:15:53;;;;;;;2.80;2.60;;;;;;;13.87;100.00;95844.59;5074017;28;20549;-70
2022/06/09 05:18:22;;;;;;;2.37;2.27;;;;;;;13.74;100.00;95825.44;5073948;28;20868;-71
2022/06/09 05:20:49;;;;;;;3.30;2.97;;;;;;;14.03;100.00;95850.53;5074311;28;20424;-71
2022/06/09 05:23:20;;;;;;;2.77;2.57;;;;;;;13.96;100.00;95850.44;5073910;28;20452;-71
2022/06/09 05:25:49;;;;;;;2.90;2.60;;;;;;;13.55;100.00;95823.66;5074049;28;20471;-71
2022/06/09 05:28:16;;;;;;;3.47;2.20;;;;;;;13.60;100.00;95833.97;5075162;28;20452;-71
2022/06/09 05:30:44;;;;;;;2.70;2.50;;;;;;;13.41;100.00;95822.69;5075235;28;20428;-71
2022/06/09 05:33:10;;;;;;;3.03;2.83;;;;;;;13.76;100.00;95835.75;5073662;28;20808;-71
2022/06/09 05:35:37;;;;;;;5.07;3.00;;;;;;;13.96;100.00;95852.31;5073954;28;20514;-71
2022/06/09 05:46:20;;;;;;;2.73;2.53;;;;;;;13.94;100.00;95847.38;5072630;28;20478;-71
2022/06/09 05:48:47;;;;;;;2.77;2.57;;;;;;;13.97;100.00;95845.88;5072510;28;20435;-71
2022/06/09 05:51:16;;;;;;;3.27;2.73;;;;;;;13.90;100.00;95852.66;5072418;28;20486;-71
2022/06/09 05:53:44;;;;;;;2.47;2.23;;;;;;;14.13;100.00;95865.84;5072359;28;20501;-73
2022/06/09 05:56:11;;;;;;;2.50;2.23;;;;;;;14.05;100.00;95861.59;5060262;28;20892;-71
2022/06/09 05:58:38;;;;;;;2.63;2.43;;;;;;;14.29;100.00;95872.88;5072295;28;20482;-71
2022/06/09 06:01:08;;;;;;;2.70;2.50;;;;;;;14.07;100.00;95869.97;5055764;28;20432;-71
2022/06/09 06:03:36;;;;;;;2.30;2.10;;;;;;;14.44;100.00;95885.28;5072142;28;20495;-71
2022/06/09 06:08:49;;;;;;;3.03;2.63;;;;;;;14.51;100.00;95895.22;5073444;28;20431;-71
2022/06/09 06:11:16;;;;;;;3.67;3.33;;;;;;;14.40;100.00;95897.72;5071962;28;20458;-71
2022/06/09 06:13:44;;;;;;;3.77;2.40;;;;;;;14.19;100.00;95868.97;5055395;28;20517;-71
2022/06/09 06:16:12;;;;;;;2.87;2.67;;;;;;;14.51;100.00;95873.94;5071898;28;20532;-71
2022/06/09 06:18:59;;;;;;;3.20;2.40;;;;;;;14.77;100.00;95898.59;5086565;28;20836;-71
2022/06/09 06:21:26;;;;;;;2.60;2.40;;;;;;;14.72;100.00;95906.91;5054436;28;20833;-71
2022/06/09 06:23:53;;;;;;;2.67;2.47;;;;;;;14.53;100.00;95877.78;5071851;28;20456;-71
2022/06/09 06:26:20;;;;;;;3.00;2.17;;;;;;;14.81;100.00;95919.16;5073219;28;20767;-71
2022/06/09 06:28:47;;;;;;;2.43;2.23;;;;;;;14.41;100.00;95880.63;5071803;28;20567;-71
2022/06/09 06:31:14;;;;;;;3.60;2.50;;;;;;;14.76;100.00;95923.66;5071727;28;20489;-73
2022/06/09 06:33:41;;;;;;;2.73;2.53;;;;;;;14.56;100.00;95918.88;5071694;28;20547;-72
2022/06/09 06:36:08;;;;;;;2.50;2.30;;;;;;;14.32;100.00;95888.91;5071749;28;20496;-71
2022/06/09 06:38:37;;;;;;;2.93;2.63;;;;;;;14.62;100.00;95918.19;5071685;28;20440;-71
2022/06/09 06:41:06;;;;;;;2.20;2.10;;;;;;;14.51;100.00;95903.97;5071483;28;20436;-71
2022/06/09 06:43:38;;;;;;;2.60;2.40;;;;;;;14.56;100.00;95932.19;5071542;28;20521;-71
2022/06/09 06:46:05;;;;;;;2.23;2.03;;;;;;;14.29;100.00;95916.22;5071410;28;20987;-71
2022/06/09 06:48:33;;;;;;;2.20;2.10;;;;;;;14.65;100.00;95936.06;5071447;28;20825;-71
2022/06/09 06:51:01;;;;;;;2.47;2.10;;;;;;;14.53;100.00;95923.00;5071372;28;20512;-71
2022/06/09 06:53:28;;;;;;;2.90;2.70;;;;;;;14.56;100.00;95921.53;5083073;28;20516;-71
2022/06/09 06:55:55;;;;;;;2.10;1.90;;;;;;;14.14;100.00;95907.25;5074123;28;20553;-72
2022/06/09 06:58:21;;;;;;;2.37;2.17;;;;;;;14.23;100.00;95882.31;5055200;28;20471;-72
2022/06/09 07:00:48;;;;;;;2.50;2.30;;;;;;;14.48;100.00;95933.97;5071119;28;20467;-72
2022/06/09 07:03:15;;;;;;;2.90;2.70;;;;;;;14.46;100.00;95898.97;5071551;28;20452;-71
2022/06/09 07:05:57;;;;;;;3.90;2.60;;;;;;;14.46;100.00;95938.88;5071479;28;20510;-71
2022/06/09 07:08:24;;;;;;;3.27;2.97;;;;;;;14.43;100.00;95918.31;5071154;28;20485;-71
2022/06/09 07:10:52;;;;;;;3.23;2.70;;;;;;;14.64;100.00;95942.53;5071374;28;20447;-72
2022/06/09 07:13:20;;;;;;;2.23;1.83;;;;;;;14.59;100.00;95955.38;5070931;28;20468;-72
2022/06/09 07:15:46;;;;;;;5.57;2.03;;;;;;;14.62;100.00;95950.09;5070749;28;20535;-71
2022/06/09 07:18:13;;;;;;;2.77;2.03;;;;;;;14.45;100.00;95946.09;5070776;28;21217;-71
2022/06/09 07:20:41;;;;;;;6.83;2.30;;;;;;;14.61;100.00;95953.91;5070893;28;20433;-72
2022/06/09 07:23:08;;;;;;;3.50;2.50;;;;;;;15.11;100.00;95962.47;5070512;28;20468;-72
2022/06/09 07:25:36;;;;;;;2.27;2.17;;;;;;;15.35;100.00;95943.31;5071071;28;20424;-72
2022/06/09 07:28:04;;;;;;;1.77;1.67;;;;;;;16.11;100.00;95960.72;5088252;28;20920;-72
2022/06/09 07:30:30;;;;;;;2.57;2.37;;;;;;;16.48;100.00;95965.91;5091237;28;20949;-72
2022/06/09 07:32:57;;;;;;;3.13;2.83;;;;;;;16.20;100.00;95967.28;5090531;28;20517;-72
2022/06/09 07:35:28;;;;;;;2.33;2.07;;;;;;;16.53;100.00;95976.22;5073909;28;20808;-72
2022/06/09 07:37:55;;;;;;;2.70;2.47;;;;;;;16.30;100.00;95978.41;5092009;28;20476;-72
2022/06/09 07:40:22;;;;;;;2.10;2.00;;;;;;;16.19;100.00;95955.06;5090626;28;20538;-72
2022/06/09 07:42:49;;;;;;;3.13;2.30;;;;;;;15.80;100.00;95943.38;5090499;28;20999;-72
2022/06/09 07:45:17;;;;;;;2.90;1.97;;;;;;;15.65;100.00;95939.81;5091912;28;20918;-72
2022/06/09 07:47:44;;;;;;;2.10;1.90;;;;;;;15.32;100.00;95954.69;5073785;28;20440;-72
2022/06/09 07:50:12;;;;;;;3.00;2.23;;;;;;;15.24;100.00;95977.09;5090772;28;20786;-72
2022/06/09 07:52:45;;;;;;;3.10;2.53;;;;;;;15.54;100.00;95979.66;5090304;28;20443;-72
2022/06/09 07:55:14;;;;;;;1.97;1.77;;;;;;;15.94;100.00;95984.22;5073814;28;20928;-72
2022/06/09 07:57:41;;;;;;;2.13;1.93;;;;;;;15.92;100.00;95983.84;5073489;28;20515;-72
2022/06/09 08:00:11;;;;;;;1.97;1.80;;;;;;;15.92;100.00;95967.84;5090395;28;20469;-72
2022/06/09 08:02:38;;;;;;;1.83;1.73;;;;;;;15.61;100.00;95968.31;5090585;28;20783;-72
2022/06/09 08:05:05;;;;;;;3.27;2.33;;;;;;;15.45;100.00;95973.84;5090268;28;20423;-72
2022/06/09 08:07:32;;;;;;;2.03;1.60;;;;;;;15.59;100.00;95994.53;5070071;28;20478;-72
2022/06/09 08:09:59;;;;;;;6.50;1.90;;;;;;;15.47;100.00;95995.56;5069397;28;20441;-72
2022/06/09 08:12:26;;;;;;;2.67;1.97;;;;;;;15.22;100.00;95962.56;5069956;28;21277;-72
2022/06/09 08:14:53;;;;;;;2.70;2.00;;;;;;;15.61;100.00;96005.63;5069963;28;20977;-72
2022/06/09 08:17:19;;;;;;;5.10;1.83;;;;;;;15.78;100.00;96005.03;5069990;28;21046;-72
2022/06/09 08:19:47;;;;;;;2.67;2.47;;;;;;;15.82;100.00;95989.06;5053434;28;20483;-73
2022/06/09 08:22:15;;;;;;;3.67;3.00;;;;;;;15.65;100.00;95987.78;5071304;28;20432;-72
2022/06/09 08:24:42;;;;;;;4.03;2.90;;;;;;;15.63;100.00;95993.50;5069821;28;20452;-72
2022/06/09 08:27:09;;;;;;;3.73;3.20;;;;;;;15.50;100.00;95980.75;5070002;28;20424;-72
2022/06/09 08:29:36;;;;;;;5.73;3.50;;;;;;;15.64;100.00;96002.25;5070061;28;20500;-72
2022/06/09 08:32:04;;;;;;;3.73;3.40;;;;;;;15.73;100.00;96010.69;5070139;28;20443;-72
2022/06/09 08:34:31;;;;;;;4.40;3.13;;;;;;;16.05;100.00;96011.00;5071001;28;20440;-72
2022/06/09 08:36:59;;;;;;;5.37;3.27;;;;;;;15.90;100.00;96007.44;5069625;28;20469;-72
2022/06/09 08:39:25;;;;;;;6.40;3.37;;;;;;;16.02;100.00;96011.72;5068793;28;20843;-72
2022/06/09 08:41:52;;;;;;;8.57;4.10;;;;;;;15.98;100.00;96026.91;5089837;28;20942;-73
2022/06/09 08:44:38;;;;;;;3.20;2.90;;;;;;;16.27;100.00;96025.25;5094741;28;20504;-73
2022/06/09 08:47:36;;;;;;;6.90;3.10;;;;;;;16.47;100.00;96031.88;5096646;28;20484;-73
2022/06/09 08:50:16;;;;;;;5.37;2.70;;;;;;;17.17;100.00;96040.66;5084362;28;20453;-73
2022/06/09 08:53:09;;;;;;;3.83;3.43;;;;;;;17.69;100.00;96038.56;5097797;28;20419;-73
2022/06/09 08:55:45;;;;;;;5.40;3.57;;;;;;;17.74;100.00;96040.88;5098102;28;20427;-73
2022/06/09 08:58:11;;;;;;;4.93;3.50;;;;;;;17.20;100.00;96045.25;5097118;28;20419;-73
2022/06/09 09:00:48;;;;;;;4.13;3.60;;;;;;;17.25;100.00;96042.25;5094357;28;20491;-73
2022/06/09 09:03:27;;;;;;;3.47;3.17;;;;;;;17.37;100.00;96047.25;5077543;28;20559;-72
2022/06/09 09:06:07;;;;;;;5.73;2.87;;;;;;;16.88;100.00;96055.81;5078640;28;20415;-73
2022/06/09 09:08:36;;;;;;;4.63;3.20;;;;;;;16.22;100.00;96049.59;5077492;28;20432;-72
2022/06/09 09:11:09;;;;;;;2.40;2.20;;;;;;;16.20;100.00;96049.22;5077256;28;21135;-73
2022/06/09 09:13:59;;;;;;;4.23;2.77;;;;;;;16.01;100.00;96041.41;5078208;28;20589;-73
2022/06/09 09:16:56;;;;;;;3.43;3.13;;;;;;;16.03;100.00;96050.59;5076743;28;20972;-73
2022/06/09 09:19:54;;;;;;;5.23;2.67;;;;;;;15.71;100.00;96050.28;5076813;28;20435;-72
2022/06/09 09:22:36;;;;;;;4.27;3.07;;;;;;;15.81;100.00;96030.19;5082854;28;21000;-71
2022/06/09 09:25:23;;;;;;;2.90;2.63;;;;;;;15.99;100.00;96049.78;5076582;28;20506;-72
2022/06/09 09:28:17;;;;;;;3.77;2.90;;;;;;;16.24;100.00;96053.44;5035996;28;20459;-72
2022/06/09 09:30:59;;;;;;;3.60;2.70;;;;;;;16.22;100.00;96031.69;5075912;28;21346;-72
2022/06/09 09:33:27;;;;;;;5.50;3.20;;;;;;;16.83;100.00;96059.59;5055737;28;20518;-72
2022/06/09 09:35:59;;;;;;;6.47;2.43;;;;;;;17.20;100.00;96045.25;5085635;28;20502;-72
2022/06/09 09:38:35;;;;;;;5.93;2.33;;;;;;;17.10;100.00;96062.78;5075903;28;20453;-72
2022/06/09 09:41:02;;;;;;;5.20;2.87;;;;;;;17.51;100.00;96054.56;5075917;28;20416;-72
2022/06/09 09:43:39;;;;;;;3.30;2.50;;;;;;;17.54;100.00;96064.50;5075798;28;20448;-72
2022/06/09 09:46:30;;;;;;;4.50;2.90;;;;;;;17.30;100.00;96070.50;5080451;28;20422;-73
2022/06/09 09:49:15;;;;;;;7.43;3.00;;;;;;;17.44;100.00;96046.50;5095964;28;20481;-72
2022/06/09 09:51:43;;;;;;;4.17;2.83;;;;;;;17.28;100.00;96025.44;5095993;28;20488;-72
2022/06/09 09:54:28;;;;;;;3.60;3.10;;;;;;;17.34;100.00;96029.28;5095443;28;20995;-73
2022/06/09 09:57:14;;;;;;;4.03;2.60;;;;;;;17.29;100.00;96063.63;5092707;28;20463;-73
2022/06/09 09:59:54;;;;;;;4.70;2.87;;;;;;;16.96;100.00;96041.34;5092703;28;20985;-74
2022/06/09 10:08:39;;;;;;;4.00;2.90;;;;;;;17.37;100.00;96057.19;5092446;28;20440;-73
2022/06/09 10:14:43;;;;;;;6.40;3.43;;;;;;;17.81;100.00;96072.22;5092445;28;20447;-72
2022/06/09 10:17:37;;;;;;;4.30;2.47;;;;;;;17.89;100.00;96073.75;5072488;28;20455;-72
2022/06/09 10:20:37;;;;;;;4.47;1.80;;;;;;;18.13;100.00;96069.59;5086575;28;20459;-72
2022/06/09 10:23:07;;;;;;;4.23;2.13;;;;;;;18.65;100.00;96080.72;5072097;28;20820;-73
2022/06/09 10:25:40;;;;;;;4.93;2.43;;;;;;;19.00;100.00;96077.97;5073369;28;20467;-72
2022/06/09 10:28:44;;;;;;;3.80;1.90;;;;;;;18.96;100.00;96087.16;5071924;28;20447;-72
2022/06/09 10:31:49;;;;;;;2.30;2.10;;;;;;;18.21;100.00;96085.28;5071887;28;20432;-73
2022/06/09 10:34:37;;;;;;;3.23;2.57;;;;;;;17.79;100.00;96053.88;5071743;28;20960;-73
2022/06/09 10:37:18;;;;;;;5.50;2.50;;;;;;;17.71;100.00;96069.13;5071697;28;20720;-72
2022/06/09 10:39:54;;;;;;;2.53;2.30;;;;;;;17.34;100.00;96080.06;5090487;28;20510;-72
2022/06/09 10:42:27;;;;;;;5.70;3.00;;;;;;;17.19;100.00;96061.66;5091949;28;20473;-72
2022/06/09 10:45:18;;;;;;;2.90;2.60;;;;;;;17.08;100.00;96086.41;5075083;28;20451;-72
2022/06/09 10:57:20;;;;;;;4.57;2.53;;;;;;;16.47;100.00;96079.91;5072651;28;20514;-71
2022/06/09 10:59:59;;;;;;;5.63;2.53;;;;;;;16.17;100.00;96072.06;5070582;28;20891;-71
2022/06/09 11:02:29;;;;;;;3.40;2.73;;;;;;;15.75;100.00;96045.75;5071323;28;20439;-71
2022/06/09 11:04:57;;;;;;;3.70;2.80;;;;;;;15.66;100.00;96046.06;5071283;28;20539;-71
2022/06/09 11:08:06;;;;;;;2.63;2.40;;;;;;;15.70;100.00;96082.63;5070600;28;20822;-71
2022/06/09 11:10:54;;;;;;;5.90;3.20;;;;;;;15.60;100.00;96094.72;5063420;28;20514;-73
2022/06/09 11:13:27;;;;;;;7.70;3.23;;;;;;;15.65;100.00;96086.41;5071142;28;20472;-71
2022/06/09 11:16:00;;;;;;;4.43;2.87;;;;;;;15.51;100.00;96078.22;5071036;28;20464;-71
2022/06/09 11:18:36;;;;;;;6.10;3.33;;;;;;;15.74;100.00;96084.19;5054276;28;20460;-71
2022/06/09 11:21:55;;;;;;;3.53;2.30;;;;;;;15.76;100.00;96086.50;5070960;28;20440;-70
2022/06/09 11:24:22;;;;;;;3.73;2.53;;;;;;;15.91;100.00;96085.53;5005655;28;20496;-71
2022/06/09 11:27:17;;;;;;;4.27;3.40;;;;;;;15.92;100.00;96074.50;5058500;28;20480;-71
2022/06/09 11:30:33;;;;;;;5.87;4.00;;;;;;;16.16;100.00;96089.19;5072130;28;20424;-71
2022/06/09 11:33:13;;;;;;;6.53;2.33;;;;;;;16.25;100.00;96086.22;5070540;28;20471;-72
2022/06/09 11:36:19;;;;;;;2.40;2.20;;;;;;;16.41;100.00;96104.63;5070679;28;20432;-71
2022/06/09 11:39:19;;;;;;;5.03;2.40;;;;;;;16.24;100.00;96072.09;5041129;28;20444;-72
2022/06/09 11:42:09;;;;;;;2.90;2.70;;;;;;;16.51;100.00;96115.41;5063590;28;20846;-72
2022/06/09 11:44:38;;;;;;;3.90;2.50;;;;;;;16.42;100.00;96100.81;5071729;28;20473;-72
2022/06/09 11:47:16;;;;;;;5.60;2.17;;;;;;;16.53;100.00;96107.03;5071755;28;20481;-72
2022/06/09 11:49:47;;;;;;;4.40;2.03;;;;;;;16.15;100.00;96082.31;5070467;28;20443;-72
2022/06/09 11:52:34;;;;;;;5.23;1.97;;;;;;;16.19;100.00;96117.03;5070342;28;20443;-72
2022/06/09 11:55:24;;;;;;;1.83;1.70;;;;;;;16.11;100.00;96121.53;5070264;28;20439;-72
2022/06/09 11:57:51;;;;;;;3.63;2.00;;;;;;;16.10;100.00;96111.22;5071696;28;20512;-72
2022/06/09 12:00:18;;;;;;;3.37;2.17;;;;;;;16.34;100.00;96121.38;5071541;28;20451;-71
2022/06/09 12:02:54;;;;;;;3.80;2.40;;;;;;;16.41;100.00;96117.97;5070121;28;20501;-72
2022/06/09 12:05:32;;;;;;;2.67;2.20;;;;;;;16.35;100.00;96127.47;5070137;28;20489;-73
2022/06/09 12:08:52;;;;;;;3.37;2.10;;;;;;;16.51;100.00;96131.41;5053618;28;20432;-73
2022/06/09 12:11:23;;;;;;;3.03;2.20;;;;;;;16.49;100.00;96131.03;5061651;28;20458;-73
2022/06/09 12:14:15;;;;;;;3.40;2.80;;;;;;;16.71;100.00;96128.56;5071250;28;20452;-73
2022/06/09 12:17:04;;;;;;;5.50;2.03;;;;;;;16.96;100.00;96139.38;5069822;28;20436;-73
2022/06/09 12:19:49;;;;;;;3.47;2.27;;;;;;;17.00;100.00;96140.97;5069186;28;20933;-73
2022/06/09 12:22:42;;;;;;;5.37;2.53;;;;;;;17.03;100.00;96147.47;5069894;28;20478;-73